CST,Max TemperatureF,Mean TemperatureF,Min TemperatureF,Max Dew PointF,MeanDew PointF,Min DewpointF,Max Humidity, Mean Humidity, Min Humidity, Max Sea Level PressureIn, Mean Sea Level PressureIn, Min Sea Level PressureIn, Max VisibilityMiles, Mean VisibilityMiles, Min VisibilityMiles, Max Wind SpeedMPH, Mean Wind SpeedMPH, Max Gust SpeedMPH,PrecipitationIn, CloudCover, Events, WindDirDegrees
2012-12-1,37,34,32,36,33,30,100,95,93,30.06,29.84,29.72,4,2,0,13,6,17,0.00,8,Fog,156
2012-12-2,35,34,33,36,32,32,100,91,87,29.98,29.90,29.80,4,3,2,9,2,16,0.00,8,,157
2012-12-3,50,42,35,48,38,28,100,84,70,29.85,29.67,29.52,10,6,1,14,9,24,0.00,5,Rain,214
2012-12-4,37,27,17,27,14,9,73,62,43,30.40,30.15,29.86,10,10,10,18,10,28,0.00,0,,303
2012-12-5,35,24,12,21,13,7,86,64,48,30.42,30.18,29.85,10,10,7,16,5,21,0.00,2,,142
2012-12-6,37,29,21,32,26,18,87,74,56,29.99,29.84,29.72,10,10,10,15,9,20,0.00,3,Rain,258
2012-12-7,28,22,15,23,19,14,93,79,64,30.06,30.03,29.97,10,10,7,8,3,,0.00,2,,306
2012-12-8,32,26,19,23,18,12,86,76,64,30.07,30.04,30.01,10,10,2,6,2,,0.00,5,Snow,97
2012-12-9,30,24,15,27,24,10,93,87,73,30.05,29.97,29.90,10,3,0,14,6,22,0.23,8,Snow,52
2012-12-10,17,6,-4,9,2,-8,92,74,58,29.95,29.90,29.84,10,10,4,14,7,22,0.00,3,Snow,313
2012-12-11,14,4,-7,7,-1,-15,92,80,67,30.00,29.85,29.77,10,8,2,8,1,,0.00,4,Snow,241
2012-12-12,33,13,-7,27,13,-13,93,79,69,30.01,29.90,29.82,10,10,7,8,2,,0.00,4,,131
2012-12-13,33,22,10,25,19,7,93,82,60,30.15,30.01,29.90,10,9,4,8,1,,0.00,2,,360
2012-12-14,32,18,3,27,15,0,93,83,74,30.15,30.03,29.84,10,9,5,7,2,,0.00,2,,83
2012-12-15,33,32,30,32,31,27,100,94,80,29.83,29.63,29.53,10,4,1,7,5,,0.34,8,Rain-Snow,80
2012-12-16,33,26,19,32,23,16,100,90,80,29.80,29.70,29.55,10,8,3,15,9,22,0.00,8,Snow,322
2012-12-17,21,20,19,19,18,18,100,91,86,29.80,29.75,29.70,10,9,2,8,3,,0.00,8,,315
2012-12-18,28,22,17,21,19,14,93,89,69,29.80,29.71,29.67,10,8,3,6,1,,0.00,7,Snow,161
2012-12-19,32,26,21,27,23,18,93,87,75,30.03,29.93,29.81,10,6,2,12,4,,0.00,6,,218
2012-12-20,26,18,10,19,15,5,86,80,73,30.06,29.95,29.88,10,10,10,23,10,30,0.00,6,Snow,340
2012-12-21,21,13,5,9,4,1,85,74,58,30.24,30.19,30.06,10,10,10,16,9,22,0.00,0,Snow,319
2012-12-22,23,12,1,14,6,-4,92,77,58,30.18,30.05,29.96,10,10,10,12,1,22,0.00,1,,341
2012-12-23,17,12,8,9,6,3,85,73,58,30.16,30.11,30.05,10,10,10,6,3,,0.00,4,Snow,21
2012-12-24,14,8,1,9,3,-4,85,71,57,30.28,30.12,30.03,10,10,4,15,5,20,0.00,3,Snow,340
2012-12-25,12,4,-4,0,-5,-8,85,74,57,30.48,30.41,30.28,10,10,10,9,4,,0.00,0,,328
2012-12-26,17,6,-4,3,-1,-8,92,75,53,30.41,30.32,30.25,10,10,10,4,0,,0.00,3,,10
2012-12-27,19,10,0,16,7,-4,86,80,68,30.27,30.22,30.16,10,8,1,5,0,,0.01,5,Snow,94
2012-12-28,23,18,12,18,14,9,93,84,74,30.16,30.07,30.02,10,5,1,5,0,,0.02,8,Snow,66
2012-12-29,19,10,1,16,9,-4,86,79,68,30.14,30.05,30.01,10,9,3,12,4,,0.00,6,Snow,266
2012-12-30,17,6,-4,9,0,-8,92,81,68,30.16,30.03,29.87,10,8,5,6,1,,0.00,1,,148
2012-12-31,17,4,-9,14,-2,-15,86,68,52,30.24,30.14,29.92,10,10,3,20,10,29,0.00,1,Snow,319